Time;durP1;ratioP1;P1;durP2;ratioP2;P2;SDS_P1;SDS_P2;PMS_P1;PMS_P2;Temp;Humidity;BMP_temperature;BMP_pressure;BME280_temperature;BME280_humidity;BME280_pressure;Samples;Min_cycle;Max_cycle;Signal;HPM_P1;HPM_P2
2021/10/11 00:02:20;;;;;;;43.20;18.15;;;10.50;99.90;;;;;;5026675;28;20082;-72
2021/10/11 00:04:46;;;;;;;50.42;20.15;;;10.60;99.90;;;;;;5026599;28;20037;-72
2021/10/11 00:07:12;;;;;;;51.22;20.27;;;10.60;99.90;;;;;;5026941;28;20095;-73
2021/10/11 00:09:41;;;;;;;51.65;20.92;;;10.60;99.90;;;;;;5027590;28;20472;-71
2021/10/11 00:12:07;;;;;;;40.50;17.73;;;10.60;99.90;;;;;;5026793;28;20137;-71
2021/10/11 00:14:33;;;;;;;51.72;19.50;;;10.60;99.90;;;;;;5026680;28;20030;-72
2021/10/11 00:16:59;;;;;;;48.50;18.95;;;10.60;99.90;;;;;;5027001;28;20041;-72
2021/10/11 00:19:25;;;;;;;63.65;20.92;;;10.60;99.90;;;;;;5026511;28;20084;-72
2021/10/11 00:21:50;;;;;;;49.42;21.15;;;10.60;99.90;;;;;;5026840;28;20022;-72
2021/10/11 00:24:16;;;;;;;47.30;19.75;;;10.60;99.90;;;;;;5027104;28;20037;-72
2021/10/11 00:26:41;;;;;;;47.92;19.83;;;10.60;99.90;;;;;;5026695;28;20516;-72
2021/10/11 00:29:07;;;;;;;48.83;19.20;;;10.60;99.90;;;;;;5027088;28;20036;-71
2021/10/11 00:31:33;;;;;;;46.30;18.65;;;10.50;99.90;;;;;;5026492;28;20045;-73
2021/10/11 00:33:58;;;;;;;43.90;19.17;;;10.60;99.90;;;;;;5026570;28;20048;-71
2021/10/11 00:36:24;;;;;;;43.67;18.05;;;10.60;99.90;;;;;;5026726;28;20026;-71
2021/10/11 00:38:50;;;;;;;51.75;19.13;;;10.60;99.90;;;;;;5026912;28;20030;-71
2021/10/11 00:41:16;;;;;;;46.92;19.85;;;10.60;99.90;;;;;;5026251;28;20026;-72
2021/10/11 00:43:42;;;;;;;61.35;20.52;;;10.60;99.90;;;;;;5025364;28;20489;-73
2021/10/11 00:46:08;;;;;;;49.60;20.00;;;10.60;99.90;;;;;;5026791;28;20068;-71
2021/10/11 00:48:35;;;;;;;55.00;21.27;;;10.60;99.90;;;;;;5025952;28;20033;-72
2021/10/11 00:51:03;;;;;;;45.00;19.73;;;10.70;99.90;;;;;;5026684;28;20045;-73
2021/10/11 00:53:28;;;;;;;41.78;18.08;;;10.70;99.90;;;;;;5026434;28;20025;-71
2021/10/11 00:55:54;;;;;;;52.13;20.30;;;10.60;99.90;;;;;;5025980;28;20033;-72
2021/10/11 00:58:20;;;;;;;58.08;20.95;;;10.70;99.90;;;;;;5025869;28;20038;-71
2021/10/11 01:00:46;;;;;;;41.65;18.90;;;10.70;99.90;;;;;;5025990;28;20033;-73
2021/10/11 01:03:12;;;;;;;65.13;20.77;;;10.70;99.90;;;;;;5026129;28;20052;-70
2021/10/11 01:05:38;;;;;;;49.13;20.75;;;10.70;99.90;;;;;;5026513;28;20066;-71
2021/10/11 01:08:04;;;;;;;53.58;19.73;;;10.70;99.90;;;;;;5025705;28;20030;-71
2021/10/11 01:10:29;;;;;;;48.35;21.20;;;10.70;99.90;;;;;;5025913;28;20030;-71
2021/10/11 01:12:55;;;;;;;47.13;18.95;;;10.70;99.90;;;;;;5025144;28;20092;-71
2021/10/11 01:15:21;;;;;;;49.90;19.45;;;10.70;99.90;;;;;;5025638;28;20048;-72
2021/10/11 01:17:47;;;;;;;48.55;19.65;;;10.70;99.90;;;;;;5025635;28;20033;-71
2021/10/11 01:20:13;;;;;;;48.33;20.05;;;10.70;99.90;;;;;;5025677;28;20033;-72
2021/10/11 01:22:42;;;;;;;49.65;19.95;;;10.70;99.90;;;;;;5025780;28;20089;-71
2021/10/11 01:25:12;;;;;;;45.42;19.85;;;10.70;99.90;;;;;;5025732;28;20084;-71
2021/10/11 01:27:38;;;;;;;54.50;18.38;;;10.70;99.90;;;;;;5026250;28;20414;-71
2021/10/11 01:30:08;;;;;;;45.55;18.48;;;10.80;99.90;;;;;;5024644;28;20448;-71
2021/10/11 01:32:34;;;;;;;38.78;18.20;;;10.80;99.90;;;;;;5025604;28;20412;-70
2021/10/11 01:35:00;;;;;;;49.58;19.45;;;10.80;99.90;;;;;;5025775;28;20057;-71
2021/10/11 01:37:26;;;;;;;49.42;20.33;;;10.80;99.90;;;;;;5025107;28;20095;-71
2021/10/11 01:39:54;;;;;;;50.30;18.88;;;10.80;99.90;;;;;;5025488;28;20025;-72
2021/10/11 01:42:19;;;;;;;48.53;18.85;;;10.80;99.90;;;;;;5025101;28;20085;-72
2021/10/11 01:44:45;;;;;;;41.38;17.15;;;10.80;99.90;;;;;;5025080;28;20037;-72
2021/10/11 01:47:12;;;;;;;47.97;18.95;;;10.80;99.90;;;;;;5023531;28;20033;-72
2021/10/11 01:49:37;;;;;;;46.33;18.02;;;10.80;99.90;;;;;;5025184;28;20131;-72
2021/10/11 01:52:03;;;;;;;48.95;18.63;;;10.80;99.90;;;;;;5024825;28;20037;-71
2021/10/11 01:54:28;;;;;;;43.33;17.63;;;10.90;99.90;;;;;;5025638;28;20026;-71
2021/10/11 01:56:54;;;;;;;49.47;17.30;;;10.90;99.90;;;;;;5025079;28;20034;-71
2021/10/11 01:59:19;;;;;;;46.33;18.40;;;10.90;99.90;;;;;;5024826;28;20033;-71
2021/10/11 02:01:45;;;;;;;44.50;18.48;;;10.90;99.90;;;;;;5025267;28;20022;-71
2021/10/11 02:04:10;;;;;;;42.03;16.60;;;10.90;99.90;;;;;;5024497;28;20052;-73
2021/10/11 02:06:36;;;;;;;50.33;17.52;;;10.90;99.90;;;;;;5023084;28;20383;-71
2021/10/11 02:09:02;;;;;;;44.70;17.52;;;10.90;99.90;;;;;;5024738;28;20030;-72
2021/10/11 02:11:28;;;;;;;46.58;17.80;;;10.90;99.90;;;;;;5024631;28;20113;-71
2021/10/11 02:13:57;;;;;;;42.63;17.80;;;10.80;99.90;;;;;;5024772;28;20022;-70
2021/10/11 02:16:23;;;;;;;44.70;16.75;;;10.90;99.90;;;;;;5023352;28;20402;-73
2021/10/11 02:18:49;;;;;;;44.00;16.67;;;10.80;99.90;;;;;;5024855;28;20034;-73
2021/10/11 02:21:15;;;;;;;41.63;17.27;;;10.80;99.90;;;;;;5024633;28;20064;-74
2021/10/11 02:23:40;;;;;;;43.75;19.20;;;10.80;99.90;;;;;;5025004;28;20034;-73
2021/10/11 02:26:06;;;;;;;51.67;18.05;;;10.80;99.90;;;;;;5023355;28;20088;-71
2021/10/11 02:28:32;;;;;;;47.25;18.08;;;10.80;99.90;;;;;;5023829;28;20045;-71
2021/10/11 02:30:57;;;;;;;44.78;19.10;;;10.80;99.90;;;;;;5023604;28;20051;-72
2021/10/11 02:33:23;;;;;;;55.13;18.92;;;10.80;99.90;;;;;;5023767;28;20030;-72
2021/10/11 02:35:48;;;;;;;49.25;18.00;;;10.70;99.90;;;;;;5024679;28;20030;-72
2021/10/11 02:38:14;;;;;;;44.92;16.95;;;10.80;99.90;;;;;;5024134;28;20064;-73
2021/10/11 02:40:40;;;;;;;48.15;17.98;;;10.70;99.90;;;;;;5024772;28;20061;-72
2021/10/11 02:43:06;;;;;;;43.67;17.85;;;10.70;99.90;;;;;;5023999;28;20041;-71
2021/10/11 02:45:31;;;;;;;44.88;17.08;;;10.70;99.90;;;;;;5023960;28;20044;-72
2021/10/11 02:47:57;;;;;;;41.28;16.23;;;10.80;99.90;;;;;;5023302;28;20018;-71
2021/10/11 02:50:22;;;;;;;36.17;15.95;;;10.70;99.90;;;;;;5024531;28;20028;-71
2021/10/11 02:52:48;;;;;;;40.83;17.02;;;10.70;99.90;;;;;;5024349;28;20034;-72
2021/10/11 02:55:13;;;;;;;34.88;14.25;;;10.80;99.90;;;;;;5024549;28;20030;-72
2021/10/11 02:57:40;;;;;;;35.28;16.10;;;10.80;99.90;;;;;;5024629;28;20022;-72
2021/10/11 03:00:07;;;;;;;35.80;13.90;;;10.80;99.90;;;;;;5026085;28;20025;-72
2021/10/11 03:02:33;;;;;;;35.00;13.90;;;10.80;99.90;;;;;;5024596;28;20045;-71
2021/10/11 03:04:59;;;;;;;41.63;15.90;;;10.80;99.90;;;;;;5023908;28;20026;-72
2021/10/11 03:07:24;;;;;;;37.33;13.73;;;10.80;99.90;;;;;;5023410;28;20092;-73
2021/10/11 03:09:50;;;;;;;41.40;14.38;;;10.80;99.90;;;;;;5024210;28;20026;-72
2021/10/11 03:12:16;;;;;;;42.55;16.00;;;10.70;99.90;;;;;;5024375;28;20247;-72
2021/10/11 03:14:42;;;;;;;32.60;14.18;;;10.80;99.90;;;;;;5021989;28;20026;-74
2021/10/11 03:17:08;;;;;;;30.85;12.85;;;10.70;99.90;;;;;;5024367;28;20572;-72
2021/10/11 03:19:34;;;;;;;28.92;12.52;;;10.70;99.90;;;;;;5023697;28;20022;-73
2021/10/11 03:22:00;;;;;;;33.63;12.27;;;10.70;99.90;;;;;;5023804;28;20029;-72
2021/10/11 03:24:25;;;;;;;29.10;12.15;;;10.70;99.90;;;;;;5023851;28;20030;-72
2021/10/11 03:26:52;;;;;;;31.23;13.23;;;10.70;99.90;;;;;;5023866;28;20072;-73
2021/10/11 03:29:17;;;;;;;27.92;10.80;;;10.70;99.90;;;;;;5023924;28;20026;-72
2021/10/11 03:31:43;;;;;;;35.53;11.60;;;10.70;99.90;;;;;;5023980;28;20093;-74
2021/10/11 03:34:11;;;;;;;29.52;10.40;;;10.70;99.90;;;;;;5023727;28;20033;-73
2021/10/11 03:36:40;;;;;;;38.92;11.23;;;10.70;99.90;;;;;;5023665;28;20037;-73
2021/10/11 03:39:06;;;;;;;26.30;10.90;;;10.80;99.90;;;;;;5022441;28;20026;-73
2021/10/11 03:41:33;;;;;;;28.15;10.98;;;10.80;99.90;;;;;;5024093;28;20049;-72
2021/10/11 03:44:00;;;;;;;18.48;8.65;;;10.80;99.90;;;;;;5027842;28;20030;-73
2021/10/11 03:46:26;;;;;;;28.10;9.40;;;10.90;99.90;;;;;;5027451;28;20038;-72
2021/10/11 03:48:51;;;;;;;20.20;9.25;;;10.90;99.90;;;;;;5026360;28;20354;-72
2021/10/11 03:51:21;;;;;;;27.63;9.07;;;10.90;99.90;;;;;;5027375;28;20034;-73
2021/10/11 03:53:47;;;;;;;19.48;8.40;;;10.90;99.90;;;;;;5027182;28;20026;-73
2021/10/11 03:56:13;;;;;;;18.23;6.35;;;10.90;99.90;;;;;;5026986;28;20113;-72
2021/10/11 03:58:39;;;;;;;21.45;8.00;;;11.00;99.90;;;;;;5027818;28;20036;-71
2021/10/11 04:01:05;;;;;;;22.98;8.00;;;11.00;99.90;;;;;;5027235;28;21019;-72
2021/10/11 04:03:32;;;;;;;15.20;6.97;;;11.00;99.90;;;;;;5026933;28;20033;-73
2021/10/11 04:05:58;;;;;;;17.00;8.20;;;11.00;99.90;;;;;;5027164;28;20022;-73
2021/10/11 04:08:31;;;;;;;21.95;7.50;;;11.00;99.90;;;;;;5026899;28;20025;-72
2021/10/11 04:11:06;;;;;;;21.92;8.00;;;11.10;99.90;;;;;;5027393;28;20049;-72
2021/10/11 04:13:32;;;;;;;19.38;7.18;;;11.00;99.90;;;;;;5027434;28;20033;-72
2021/10/11 04:15:58;;;;;;;14.63;6.25;;;11.00;99.90;;;;;;5026640;28;20030;-72
2021/10/11 04:18:23;;;;;;;25.85;7.68;;;11.10;99.90;;;;;;5026939;28;20109;-72
2021/10/11 04:20:49;;;;;;;14.57;6.38;;;11.00;99.90;;;;;;5027617;28;20110;-72
2021/10/11 04:23:15;;;;;;;13.13;5.28;;;11.00;99.90;;;;;;5026206;28;20118;-72
2021/10/11 04:25:41;;;;;;;15.30;6.38;;;11.00;99.90;;;;;;5027120;28;20393;-73
2021/10/11 04:28:08;;;;;;;13.27;5.88;;;11.10;99.90;;;;;;5025836;28;20044;-72
2021/10/11 04:30:34;;;;;;;13.50;5.40;;;11.10;99.90;;;;;;5026451;28;20028;-72
2021/10/11 04:33:00;;;;;;;17.38;5.82;;;11.00;99.90;;;;;;5026653;28;20062;-72
2021/10/11 04:35:27;;;;;;;23.90;5.78;;;11.00;99.90;;;;;;5026231;28;20588;-73
2021/10/11 04:37:52;;;;;;;14.82;5.20;;;11.00;99.90;;;;;;5026057;28;20026;-71
2021/10/11 04:40:19;;;;;;;10.07;5.50;;;11.00;99.90;;;;;;5026675;28;20080;-74
2021/10/11 04:42:45;;;;;;;18.02;5.40;;;11.00;99.90;;;;;;5026769;28;20053;-72
2021/10/11 04:45:11;;;;;;;17.38;6.30;;;11.00;99.90;;;;;;5026106;28;20030;-73
2021/10/11 04:47:37;;;;;;;19.05;5.90;;;10.90;99.90;;;;;;5026590;28;20038;-72
2021/10/11 04:50:04;;;;;;;11.07;4.38;;;10.90;99.90;;;;;;5025866;28;20030;-72
2021/10/11 04:52:29;;;;;;;11.70;4.80;;;10.90;99.90;;;;;;5026474;28;20390;-72
2021/10/11 04:54:55;;;;;;;8.45;4.00;;;10.90;99.90;;;;;;5025359;28;20081;-70
2021/10/11 04:57:21;;;;;;;19.23;4.70;;;10.90;99.90;;;;;;5025808;28;20045;-72
2021/10/11 04:59:47;;;;;;;8.85;4.15;;;10.90;99.90;;;;;;5026271;28;20459;-73
2021/10/11 05:02:12;;;;;;;12.57;4.63;;;10.80;99.90;;;;;;5026057;28;20086;-72
2021/10/11 05:04:38;;;;;;;17.40;3.70;;;10.80;99.90;;;;;;5026449;28;20040;-74
2021/10/11 05:07:04;;;;;;;13.25;3.67;;;10.80;99.90;;;;;;5026038;28;20045;-71
2021/10/11 05:09:29;;;;;;;19.05;3.50;;;10.80;99.90;;;;;;5026516;28;20090;-71
2021/10/11 05:11:55;;;;;;;12.63;4.35;;;10.80;99.90;;;;;;5026208;28;20026;-72
2021/10/11 05:14:21;;;;;;;10.80;4.10;;;10.80;99.90;;;;;;5025637;28;20030;-72
2021/10/11 05:16:47;;;;;;;13.73;3.50;;;10.80;99.90;;;;;;5024785;28;20065;-72
2021/10/11 05:19:13;;;;;;;8.38;3.35;;;10.80;99.90;;;;;;5025170;28;20026;-72
2021/10/11 05:21:39;;;;;;;13.65;3.72;;;10.80;99.90;;;;;;5025550;28;20026;-72
2021/10/11 05:24:05;;;;;;;7.07;3.17;;;10.80;99.90;;;;;;5025086;28;20109;-72
2021/10/11 05:26:31;;;;;;;6.97;3.55;;;10.80;99.90;;;;;;5025676;28;20033;-72
2021/10/11 05:28:57;;;;;;;14.90;3.95;;;10.80;99.90;;;;;;5018838;28;20414;-72
2021/10/11 05:31:23;;;;;;;14.82;3.97;;;10.80;99.90;;;;;;5013133;28;20050;-72
2021/10/11 05:33:50;;;;;;;17.75;2.75;;;10.80;99.90;;;;;;5013560;28;20483;-73
2021/10/11 05:36:16;;;;;;;11.27;3.72;;;10.70;99.90;;;;;;5006425;28;20057;-72
2021/10/11 05:38:43;;;;;;;10.45;2.92;;;10.80;99.90;;;;;;5020844;28;20030;-73
2021/10/11 05:41:08;;;;;;;10.65;3.78;;;10.80;99.90;;;;;;5023528;28;20040;-71
2021/10/11 05:43:34;;;;;;;8.73;2.75;;;10.70;99.90;;;;;;5024425;28;20079;-71
2021/10/11 05:46:01;;;;;;;9.38;3.35;;;10.80;99.90;;;;;;5017889;28;20043;-72
2021/10/11 05:48:26;;;;;;;6.93;3.00;;;10.80;99.90;;;;;;5013300;28;20034;-71
2021/10/11 05:50:52;;;;;;;7.80;2.03;;;10.80;99.90;;;;;;5009119;28;20032;-73
2021/10/11 05:53:17;;;;;;;9.43;3.50;;;10.90;99.90;;;;;;5015748;28;20029;-72
2021/10/11 05:55:43;;;;;;;7.18;3.08;;;10.80;99.90;;;;;;5023444;28;20037;-73
2021/10/11 05:58:09;;;;;;;7.10;2.55;;;10.90;99.90;;;;;;5025175;28;20117;-72
2021/10/11 06:00:35;;;;;;;4.18;2.25;;;10.90;99.90;;;;;;5024128;28;20040;-73
2021/10/11 06:03:00;;;;;;;5.90;1.88;;;10.80;99.90;;;;;;5024845;28;20034;-72
2021/10/11 06:05:26;;;;;;;4.40;1.85;;;10.90;99.90;;;;;;5019580;28;20284;-72
2021/10/11 06:07:52;;;;;;;8.05;2.50;;;10.90;99.90;;;;;;5024965;28;20402;-72
2021/10/11 06:10:18;;;;;;;5.95;1.85;;;10.90;99.90;;;;;;5011170;28;20030;-72
2021/10/11 06:12:43;;;;;;;7.30;2.78;;;10.90;99.90;;;;;;5013283;28;20034;-73
2021/10/11 06:15:10;;;;;;;6.25;2.85;;;10.90;99.90;;;;;;5017046;28;20046;-72
2021/10/11 06:17:36;;;;;;;9.77;2.38;;;10.90;99.90;;;;;;5019804;28;20037;-72
2021/10/11 06:20:02;;;;;;;4.60;2.05;;;10.90;99.90;;;;;;5020959;28;20037;-71
2021/10/11 06:22:27;;;;;;;3.28;1.83;;;10.90;99.90;;;;;;5022425;28;20429;-72
2021/10/11 06:24:53;;;;;;;2.75;1.77;;;10.90;99.90;;;;;;5023642;28;20030;-72
2021/10/11 06:27:18;;;;;;;5.03;2.30;;;10.90;99.90;;;;;;5022460;28;20046;-73
2021/10/11 06:29:44;;;;;;;5.30;2.08;;;10.90;99.90;;;;;;5022500;28;20038;-73
2021/10/11 06:32:12;;;;;;;6.53;2.40;;;10.90;99.90;;;;;;5024456;28;20081;-73
2021/10/11 06:34:37;;;;;;;4.60;2.50;;;10.90;99.90;;;;;;5025192;28;20426;-72
2021/10/11 06:37:03;;;;;;;13.00;2.65;;;10.90;99.90;;;;;;5024528;28;20052;-72
2021/10/11 06:39:29;;;;;;;4.35;1.85;;;10.90;99.90;;;;;;5024882;28;20030;-72
2021/10/11 06:41:54;;;;;;;4.20;1.52;;;10.90;99.90;;;;;;5020430;28;20061;-73
2021/10/11 06:44:20;;;;;;;4.15;1.73;;;10.90;99.90;;;;;;5023533;28;20036;-73
2021/10/11 06:46:47;;;;;;;4.82;2.35;;;10.80;99.90;;;;;;5024455;28;20065;-71
2021/10/11 06:49:12;;;;;;;2.47;1.52;;;10.80;99.90;;;;;;5024401;28;20374;-72
2021/10/11 06:51:38;;;;;;;2.72;1.13;;;10.80;99.90;;;;;;5024601;28;20056;-72
2021/10/11 06:54:04;;;;;;;5.95;2.15;;;10.80;99.90;;;;;;5022544;28;20046;-72
2021/10/11 06:56:31;;;;;;;2.20;1.48;;;10.80;99.90;;;;;;5023524;28;20037;-72
2021/10/11 06:58:56;;;;;;;7.28;1.83;;;10.90;99.90;;;;;;5024262;28;20026;-71
2021/10/11 07:01:22;;;;;;;6.60;1.20;;;10.90;99.90;;;;;;5023765;28;20041;-72
2021/10/11 07:03:47;;;;;;;0.75;0.60;;;10.80;99.90;;;;;;5024595;28;20030;-73
2021/10/11 07:06:17;;;;;;;10.65;1.73;;;11.00;99.90;;;;;;5023365;28;20048;-74
2021/10/11 07:08:43;;;;;;;6.47;1.48;;;11.10;99.90;;;;;;5023490;28;20030;-72
2021/10/11 07:11:09;;;;;;;8.65;1.60;;;11.30;99.90;;;;;;5023989;28;20828;-72
2021/10/11 07:13:35;;;;;;;2.85;1.45;;;11.40;99.90;;;;;;5023470;28;20051;-73
2021/10/11 07:16:04;;;;;;;3.17;1.20;;;11.50;99.90;;;;;;5023404;28;20068;-71
2021/10/11 07:18:31;;;;;;;5.68;1.20;;;11.70;99.90;;;;;;5026919;28;20026;-74
2021/10/11 07:20:56;;;;;;;5.75;1.27;;;11.80;99.90;;;;;;5028467;28;20234;-73
2021/10/11 07:23:22;;;;;;;6.57;1.08;;;11.90;99.90;;;;;;5027639;28;20018;-72
2021/10/11 07:25:47;;;;;;;7.40;1.80;;;11.90;99.90;;;;;;5026589;28;20024;-73
2021/10/11 07:28:13;;;;;;;6.22;1.20;;;11.80;99.90;;;;;;5026255;28;20029;-73
2021/10/11 07:30:39;;;;;;;5.90;1.27;;;11.80;99.90;;;;;;5027742;28;20135;-72
2021/10/11 07:33:08;;;;;;;11.65;1.38;;;11.80;99.90;;;;;;5026479;28;20022;-74
2021/10/11 07:35:34;;;;;;;8.10;1.63;;;11.80;99.90;;;;;;5027893;28;20022;-73
2021/10/11 07:38:00;;;;;;;11.55;1.60;;;12.00;99.90;;;;;;5027725;28;20018;-73
2021/10/11 07:40:26;;;;;;;4.53;1.38;;;12.20;99.90;;;;;;5025841;28;20032;-73
2021/10/11 07:42:52;;;;;;;2.33;0.82;;;12.20;99.90;;;;;;5026195;28;20081;-73
2021/10/11 07:45:18;;;;;;;1.38;0.68;;;12.40;99.90;;;;;;5026769;28;20037;-73
2021/10/11 07:47:44;;;;;;;9.63;1.27;;;12.70;99.90;;;;;;5026992;28;20034;-72
2021/10/11 07:50:11;;;;;;;17.05;1.90;;;12.80;99.90;;;;;;5027732;28;20038;-72
2021/10/11 07:52:37;;;;;;;6.93;1.60;;;13.00;99.90;;;;;;5027057;28;20037;-73
2021/10/11 07:55:04;;;;;;;9.70;1.23;;;13.30;99.90;;;;;;5026143;28;20026;-72
2021/10/11 07:57:33;;;;;;;5.38;1.08;;;13.30;99.90;;;;;;5027169;28;20036;-72
2021/10/11 08:00:24;;;;;;;6.05;1.38;;;13.40;99.90;;;;;;5024789;28;20033;-75
2021/10/11 08:02:50;;;;;;;5.13;1.08;;;13.40;99.90;;;;;;5024840;28;20474;-73
2021/10/11 08:05:16;;;;;;;4.40;0.82;;;13.40;99.90;;;;;;5026101;28;20036;-71
2021/10/11 08:07:43;;;;;;;4.32;1.60;;;13.40;99.90;;;;;;5023743;28;20048;-72
2021/10/11 08:10:15;;;;;;;5.15;0.73;;;13.40;99.90;;;;;;5019031;28;20034;-74
2021/10/11 08:12:43;;;;;;;5.03;1.13;;;13.50;99.90;;;;;;5023149;28;20045;-72
2021/10/11 08:15:10;;;;;;;2.50;0.95;;;13.50;99.90;;;;;;5026080;28;20030;-71
2021/10/11 08:17:37;;;;;;;10.55;1.60;;;13.60;99.90;;;;;;5011849;28;20394;-74
2021/10/11 08:20:05;;;;;;;6.32;1.30;;;13.70;99.90;;;;;;5025417;28;20564;-72
2021/10/11 08:22:31;;;;;;;2.28;0.73;;;13.70;99.90;;;;;;5020566;28;20042;-73
2021/10/11 08:24:56;;;;;;;9.38;2.10;;;13.70;99.90;;;;;;5021220;28;20045;-73
2021/10/11 08:27:22;;;;;;;2.20;0.88;;;13.80;99.90;;;;;;5018132;28;20102;-72
2021/10/11 08:29:52;;;;;;;10.52;1.50;;;13.80;99.90;;;;;;5019022;28;20053;-72
2021/10/11 08:32:23;;;;;;;3.78;1.27;;;13.80;99.90;;;;;;5020900;28;20073;-71
2021/10/11 08:34:49;;;;;;;6.25;1.17;;;13.90;99.90;;;;;;5020580;28;20042;-71
2021/10/11 08:37:15;;;;;;;5.28;1.15;;;13.90;99.90;;;;;;5023236;28;20033;-74
2021/10/11 08:39:42;;;;;;;20.77;1.77;;;14.00;99.90;;;;;;5021930;28;20037;-73
2021/10/11 08:42:13;;;;;;;1.48;0.80;;;13.90;99.90;;;;;;5020612;28;20113;-73
2021/10/11 08:44:44;;;;;;;5.28;0.95;;;14.10;99.90;;;;;;5019755;28;20049;-73
2021/10/11 08:47:16;;;;;;;6.00;1.08;;;14.10;99.90;;;;;;5024968;28;20088;-73
2021/10/11 08:49:46;;;;;;;3.78;0.63;;;14.20;99.90;;;;;;5026582;28;20112;-72
2021/10/11 08:52:14;;;;;;;6.20;1.05;;;14.20;99.90;;;;;;5026676;28;20030;-73
2021/10/11 08:54:43;;;;;;;5.22;1.35;;;14.20;99.90;;;;;;5026614;28;20037;-71
2021/10/11 08:57:30;;;;;;;4.57;0.82;;;14.30;99.90;;;;;;5023100;28;20124;-73
2021/10/11 09:00:25;;;;;;;9.30;1.08;;;14.50;99.90;;;;;;5026460;28;20026;-72
2021/10/11 09:02:58;;;;;;;1.77;0.90;;;14.60;99.90;;;;;;5016133;28;20033;-75
2021/10/11 09:05:34;;;;;;;5.22;0.52;;;14.60;99.90;;;;;;5025088;28;20026;-72
2021/10/11 09:08:09;;;;;;;2.25;0.90;;;14.80;99.90;;;;;;5025508;28;20474;-74
2021/10/11 09:10:55;;;;;;;9.43;1.33;;;15.00;99.90;;;;;;5025614;28;20078;-73
2021/10/11 09:13:27;;;;;;;4.28;0.82;;;15.20;99.90;;;;;;5026323;28;20053;-74
2021/10/11 09:16:40;;;;;;;5.53;1.27;;;15.20;99.90;;;;;;5025605;28;20034;-72
2021/10/11 09:19:29;;;;;;;2.83;0.93;;;15.10;99.90;;;;;;5026127;28;20026;-72
2021/10/11 09:21:54;;;;;;;1.20;0.63;;;14.90;99.90;;;;;;5022957;28;20037;-74
2021/10/11 09:24:21;;;;;;;3.33;1.00;;;14.90;99.90;;;;;;5017164;28;20038;-74
2021/10/11 09:26:49;;;;;;;3.78;0.88;;;14.80;99.90;;;;;;5026061;28;20048;-75
2021/10/11 09:29:27;;;;;;;6.15;0.85;;;14.70;99.90;;;;;;5010706;28;20065;-76
2021/10/11 09:32:01;;;;;;;8.60;1.45;;;14.70;99.90;;;;;;5003082;28;20457;-75
2021/10/11 09:34:27;;;;;;;;;;;14.60;99.90;;;;;;5015962;28;20034;-74
2021/10/11 09:36:58;;;;;;;1.42;0.50;;;14.60;99.90;;;;;;5024538;28;19912;-73
2021/10/11 09:39:26;;;;;;;2.70;0.98;;;14.70;99.90;;;;;;5025130;28;20030;-73
2021/10/11 09:41:53;;;;;;;7.07;0.85;;;14.70;99.90;;;;;;5025936;28;20033;-76
2021/10/11 09:44:20;;;;;;;2.70;0.77;;;14.60;99.90;;;;;;5037691;28;20026;-74
2021/10/11 09:46:46;;;;;;;5.35;0.73;;;14.60;99.90;;;;;;5025845;28;20061;-76
2021/10/11 09:49:12;;;;;;;5.63;1.15;;;14.80;99.90;;;;;;5005477;28;20026;-74
2021/10/11 09:51:39;;;;;;;6.88;0.95;;;15.00;99.90;;;;;;5002263;28;20125;-73
2021/10/11 09:54:04;;;;;;;6.95;0.60;;;15.30;99.90;;;;;;5011912;28;20065;-74
2021/10/11 09:56:32;;;;;;;2.80;0.57;;;15.40;99.90;;;;;;5024212;28;20490;-74
2021/10/11 09:58:57;;;;;;;3.53;1.08;;;15.50;99.90;;;;;;5024362;28;20038;-73
2021/10/11 10:01:24;;;;;;;3.97;1.13;;;15.50;99.90;;;;;;5024326;28;20030;-71
2021/10/11 10:03:54;;;;;;;3.28;1.20;;;15.40;99.90;;;;;;5024754;28;20037;-73
2021/10/11 10:06:23;;;;;;;7.07;1.23;;;15.50;99.90;;;;;;5014853;28;20088;-76
2021/10/11 10:08:59;;;;;;;6.80;1.30;;;15.40;99.90;;;;;;5019757;28;20489;-74
2021/10/11 10:11:30;;;;;;;3.08;0.75;;;15.30;99.90;;;;;;5022419;28;20029;-74
2021/10/11 10:13:56;;;;;;;5.35;0.57;;;15.00;99.90;;;;;;5023689;28;20082;-74
2021/10/11 10:16:26;;;;;;;2.30;0.38;;;14.80;99.90;;;;;;5021102;28;20034;-74
2021/10/11 10:18:52;;;;;;;3.67;1.27;;;14.80;99.90;;;;;;5024138;28;20040;-74
2021/10/11 10:21:31;;;;;;;3.35;0.82;;;14.90;99.90;;;;;;5023513;28;20046;-74
2021/10/11 10:23:57;;;;;;;10.50;1.52;;;15.00;99.90;;;;;;5023169;28;20030;-73
2021/10/11 10:26:34;;;;;;;2.20;0.52;;;15.10;99.90;;;;;;5023407;28;20102;-72
2021/10/11 10:29:10;;;;;;;7.10;1.20;;;15.30;99.90;;;;;;5022453;28;20030;-73
2021/10/11 10:31:41;;;;;;;8.25;1.30;;;15.50;99.90;;;;;;5011780;28;20042;-74
2021/10/11 10:34:28;;;;;;;1.77;0.50;;;15.70;99.90;;;;;;5024235;28;20429;-75
2021/10/11 10:37:13;;;;;;;0.52;0.35;;;16.00;99.90;;;;;;5023494;28;20137;-73
2021/10/11 10:39:57;;;;;;;6.47;1.05;;;16.00;99.90;;;;;;5024236;28;20034;-73
2021/10/11 10:42:28;;;;;;;7.00;0.85;;;16.10;99.90;;;;;;5023279;28;20034;-72
2021/10/11 10:44:56;;;;;;;2.97;0.60;;;16.20;99.90;;;;;;5023773;28;20391;-71
2021/10/11 10:47:36;;;;;;;11.20;1.45;;;16.30;99.90;;;;;;5023378;28;20042;-72
2021/10/11 10:50:08;;;;;;;1.45;0.40;;;16.40;99.90;;;;;;5022587;28;20018;-74
2021/10/11 10:52:33;;;;;;;9.52;0.80;;;16.50;99.90;;;;;;5022539;28;20022;-74
2021/10/11 10:55:01;;;;;;;8.50;1.08;;;16.60;99.90;;;;;;5023066;28;20026;-74
2021/10/11 10:57:29;;;;;;;3.80;0.73;;;16.70;99.90;;;;;;5029441;28;20025;-71
2021/10/11 10:59:58;;;;;;;4.65;0.75;;;16.90;99.90;;;;;;5043812;28;20052;-70
2021/10/11 11:02:24;;;;;;;0.75;0.50;;;17.20;99.90;;;;;;5026692;28;20053;-73
2021/10/11 11:04:59;;;;;;;2.20;0.47;;;17.30;99.90;;;;;;5023446;28;20084;-72
2021/10/11 11:07:31;;;;;;;3.05;0.70;;;17.20;99.90;;;;;;5022074;28;20030;-72
2021/10/11 11:09:58;;;;;;;2.53;0.52;;;17.10;99.90;;;;;;5022170;28;20220;-71
2021/10/11 11:12:31;;;;;;;5.78;0.90;;;17.10;99.90;;;;;;5023088;28;20101;-72
2021/10/11 11:14:57;;;;;;;7.05;0.90;;;16.80;99.90;;;;;;5021466;28;20113;-74
2021/10/11 11:17:33;;;;;;;2.30;0.88;;;16.70;99.90;;;;;;5022692;28;20053;-72
2021/10/11 11:20:02;;;;;;;5.68;0.65;;;16.60;99.90;;;;;;5022078;28;20026;-72
2021/10/11 11:22:32;;;;;;;1.17;0.32;;;16.40;99.90;;;;;;5021796;28;20026;-72
2021/10/11 11:25:04;;;;;;;0.80;0.50;;;16.10;99.90;;;;;;5021409;28;20025;-74
2021/10/11 11:27:34;;;;;;;4.45;0.75;;;15.90;99.90;;;;;;5022694;28;20044;-72
2021/10/11 11:30:20;;;;;;;0.55;0.28;;;15.60;99.90;;;;;;5023456;28;20026;-76
2021/10/11 11:33:08;;;;;;;5.57;0.50;;;15.20;99.90;;;;;;5023636;28;20061;-75
2021/10/11 11:35:36;;;;;;;0.55;0.30;;;14.80;99.90;;;;;;5003084;28;20375;-73
2021/10/11 11:38:08;;;;;;;2.65;0.57;;;14.50;99.90;;;;;;5004054;28;20023;-75
2021/10/11 11:40:50;;;;;;;9.82;0.80;;;14.30;99.90;;;;;;5004480;28;20109;-74
2021/10/11 11:43:19;;;;;;;4.63;0.88;;;14.10;99.90;;;;;;5002767;28;20034;-73
2021/10/11 11:45:50;;;;;;;5.90;0.73;;;13.90;99.90;;;;;;5003709;28;20433;-75
2021/10/11 11:48:24;;;;;;;3.33;0.63;;;13.80;99.90;;;;;;5003109;28;20550;-74
2021/10/11 11:50:54;;;;;;;1.13;0.50;;;13.60;99.90;;;;;;5003101;28;20023;-74
2021/10/11 11:53:22;;;;;;;0.70;0.17;;;13.60;99.90;;;;;;5020197;28;20954;-74
2021/10/11 11:55:55;;;;;;;3.50;1.02;;;13.50;99.90;;;;;;5022497;28;20030;-74
2021/10/11 11:58:27;;;;;;;3.50;0.57;;;13.50;99.90;;;;;;5021985;28;20454;-72
2021/10/11 12:00:58;;;;;;;2.92;0.75;;;14.10;99.90;;;;;;5023623;28;20030;-73
2021/10/11 12:03:29;;;;;;;8.27;0.90;;;15.00;99.90;;;;;;5024529;28;20061;-73
2021/10/11 12:05:57;;;;;;;5.18;1.17;;;15.80;99.90;;;;;;5023949;28;20026;-72
2021/10/11 12:08:22;;;;;;;8.10;0.80;;;16.50;99.90;;;;;;5025876;28;20085;-73
2021/10/11 12:11:03;;;;;;;3.35;0.80;;;17.10;99.90;;;;;;5023004;28;20037;-73
2021/10/11 12:13:31;;;;;;;2.20;0.95;;;17.60;99.90;;;;;;5026921;28;20033;-74
2021/10/11 12:16:02;;;;;;;3.03;0.70;;;18.10;99.90;;;;;;5027341;28;20022;-73
2021/10/11 12:18:46;;;;;;;1.60;0.55;;;18.40;99.90;;;;;;5026536;28;20060;-72
2021/10/11 12:21:22;;;;;;;2.53;0.77;;;18.80;99.90;;;;;;5026606;28;20026;-75
2021/10/11 12:23:50;;;;;;;3.67;0.82;;;19.10;99.90;;;;;;5026828;28;20091;-74
2021/10/11 12:26:18;;;;;;;0.77;0.55;;;19.30;99.90;;;;;;5025158;28;20050;-73
2021/10/11 12:29:02;;;;;;;8.35;0.68;;;19.20;99.90;;;;;;5024170;28;20052;-74
2021/10/11 12:31:36;;;;;;;6.78;0.47;;;18.70;99.90;;;;;;5026623;28;20050;-74
2021/10/11 12:34:13;;;;;;;5.67;0.77;;;18.10;99.90;;;;;;5026751;28;20432;-74
2021/10/11 12:37:09;;;;;;;5.60;0.43;;;17.20;99.90;;;;;;5025162;28;20273;-72
2021/10/11 12:39:38;;;;;;;0.25;0.20;;;16.40;99.90;;;;;;5024944;28;20135;-71
2021/10/11 12:42:24;;;;;;;5.13;0.47;;;15.80;99.90;;;;;;5026933;28;20076;-72
2021/10/11 12:44:54;;;;;;;1.48;0.40;;;15.40;99.90;;;;;;5027052;28;20042;-73
2021/10/11 12:47:29;;;;;;;0.88;0.20;;;15.30;99.90;;;;;;5026635;28;20102;-73